Time;durP1;ratioP1;P1;durP2;ratioP2;P2;SDS_P1;SDS_P2;PMS_P1;PMS_P2;Temp;Humidity;BMP_temperature;BMP_pressure;BME280_temperature;BME280_humidity;BME280_pressure;Samples;Min_cycle;Max_cycle;Signal;HPM_P1;HPM_P2
2023/10/23 00:01:35;;;;;;;;;;;;;;;9.41;100.00;101255.06;5036964;28;19968;-72
2023/10/23 00:04:01;;;;;;;;;;;;;;;9.39;100.00;101256.97;5037331;28;19985;-72
2023/10/23 00:06:26;;;;;;;;;;;;;;;9.40;100.00;101252.50;5024172;28;20513;-72
2023/10/23 00:08:51;;;;;;;;;;;;;;;9.40;100.00;101255.19;5036550;28;20363;-72
2023/10/23 00:11:23;;;;;;;;;;;;;;;9.40;100.00;101263.22;5022144;28;19967;-71
2023/10/23 00:13:48;;;;;;;;;;;;;;;9.28;100.00;101270.22;5036148;28;19966;-72
2023/10/23 00:16:13;;;;;;;;;;;;;;;9.20;100.00;101277.91;5024830;28;20339;-72
2023/10/23 00:18:39;;;;;;;;;;;;;;;9.12;100.00;101273.91;5038645;28;20410;-72
2023/10/23 00:21:04;;;;;;;;;;;;;;;9.05;100.00;101272.56;5038279;28;20381;-72
2023/10/23 00:23:29;;;;;;;;;;;;;;;8.98;100.00;101280.16;5020707;28;19920;-72
2023/10/23 00:25:54;;;;;;;;;;;;;;;8.87;100.00;101279.13;5036256;28;19960;-72
2023/10/23 00:28:19;;;;;;;;;;;;;;;8.75;100.00;101276.25;5032889;28;20043;-72
2023/10/23 00:30:45;;;;;;;;;;;;;;;8.69;100.00;101268.63;5031845;28;20019;-72
2023/10/23 00:33:10;;;;;;;;;;;;;;;8.66;100.00;101279.53;5033597;28;20136;-72
2023/10/23 00:35:36;;;;;;;;;;;;;;;8.62;100.00;101273.47;5015731;28;20390;-72
2023/10/23 00:38:01;;;;;;;;;;;;;;;8.54;100.00;101271.28;5030704;28;19924;-72
2023/10/23 00:40:26;;;;;;;;;;;;;;;8.44;100.00;101279.97;5031687;28;20259;-72
2023/10/23 00:42:51;;;;;;;;;;;;;;;8.34;100.00;101272.50;5028693;28;20786;-72
2023/10/23 00:45:17;;;;;;;;;;;;;;;8.31;100.00;101271.84;5034858;28;20294;-72
2023/10/23 00:47:42;;;;;;;;;;;;;;;8.31;100.00;101275.38;5031871;28;20271;-72
2023/10/23 00:50:07;;;;;;;;;;;;;;;8.33;100.00;101269.94;5033712;28;20783;-72
2023/10/23 00:52:32;;;;;;;;;;;;;;;8.30;100.00;101276.34;5034773;28;20410;-72
2023/10/23 00:54:57;;;;;;;;;;;;;;;8.26;100.00;101272.97;5039487;28;19924;-72
2023/10/23 00:57:23;;;;;;;;;;;;;;;8.24;100.00;101266.84;5031265;28;19924;-72
2023/10/23 00:59:48;;;;;;;;;;;;;;;8.20;100.00;101269.81;5030551;28;19963;-72
2023/10/23 01:02:14;;;;;;;;;;;;;;;8.19;100.00;101271.66;5031134;28;20351;-72
2023/10/23 01:04:39;;;;;;;;;;;;;;;8.20;100.00;101269.81;5030396;28;20469;-72
2023/10/23 01:07:04;;;;;;;;;;;;;;;8.19;100.00;101274.31;5034556;28;19924;-72
2023/10/23 01:09:29;;;;;;;;;;;;;;;8.17;100.00;101278.03;5031920;28;19983;-72
2023/10/23 01:11:55;;;;;;;;;;;;;;;8.11;100.00;101285.47;5039488;28;19920;-72
2023/10/23 01:14:20;;;;;;;;;;;;;;;7.98;100.00;101284.50;5033674;28;19983;-72
2023/10/23 01:16:45;;;;;;;;;;;;;;;7.87;100.00;101285.13;5028020;28;19928;-72
2023/10/23 01:19:10;;;;;;;;;;;;;;;7.77;100.00;101286.63;5034773;28;19917;-72
2023/10/23 01:21:35;;;;;;;;;;;;;;;7.74;100.00;101284.13;5013865;28;20712;-72
2023/10/23 01:24:01;;;;;;;;;;;;;;;7.72;100.00;101289.56;5037680;28;19916;-72
2023/10/23 01:26:26;;;;;;;;;;;;;;;7.70;100.00;101296.81;5043570;28;19920;-72
2023/10/23 01:28:51;;;;;;;;;;;;;;;7.65;100.00;101294.41;5043919;28;20023;-72
2023/10/23 01:31:16;;;;;;;;;;;;;;;7.66;100.00;101295.25;5028901;28;19928;-72
2023/10/23 01:33:42;;;;;;;;;;;;;;;7.70;100.00;101288.78;5043055;28;19936;-72
2023/10/23 01:36:07;;;;;;;;;;;;;;;7.68;100.00;101296.03;5054252;28;19931;-72
2023/10/23 01:38:32;;;;;;;;;;;;;;;7.64;100.00;101294.50;5042045;28;19924;-72
2023/10/23 01:40:57;;;;;;;;;;;;;;;7.58;100.00;101293.03;5043918;28;19968;-72
2023/10/23 01:43:22;;;;;;;;;;;;;;;7.49;100.00;101297.13;5047538;28;19971;-72
2023/10/23 01:45:48;;;;;;;;;;;;;;;7.46;100.00;101301.75;5045509;28;20011;-72
2023/10/23 01:48:13;;;;;;;;;;;;;;;7.45;100.00;101300.03;5038716;28;20017;-72
2023/10/23 01:50:38;;;;;;;;;;;;;;;7.42;100.00;101302.88;5049606;28;19925;-72
2023/10/23 01:53:03;;;;;;;;;;;;;;;7.39;100.00;101295.91;5032209;28;20489;-72
2023/10/23 01:55:28;;;;;;;;;;;;;;;7.35;100.00;101287.22;5040629;28;20003;-72
2023/10/23 01:57:57;;;;;;;;;;;;;;;7.32;100.00;101290.06;5028209;28;20107;-72
2023/10/23 02:00:22;;;;;;;;;;;;;;;7.27;100.00;101293.94;5031891;28;19932;-72
2023/10/23 02:02:47;;;;;;;;;;;;;;;7.20;100.00;101296.09;5021084;28;19956;-72
2023/10/23 02:05:13;;;;;;;;;;;;;;;7.13;100.00;101297.41;5043360;28;19964;-72
2023/10/23 02:07:38;;;;;;;;;;;;;;;7.03;100.00;101297.91;5036516;28;19996;-72
2023/10/23 02:10:03;;;;;;;;;;;;;;;6.92;100.00;101294.09;5042985;28;19951;-72
2023/10/23 02:12:29;;;;;;;;;;;;;;;6.84;100.00;101291.88;5039663;28;20008;-72
2023/10/23 02:14:55;;;;;;;;;;;;;;;6.82;100.00;101283.94;5043826;28;20371;-72
2023/10/23 02:17:20;;;;;;;;;;;;;;;6.86;100.00;101287.31;5042416;28;20284;-72
2023/10/23 02:19:45;;;;;;;;;;;;;;;6.90;100.00;101292.38;5031459;28;19921;-72
2023/10/23 02:22:11;;;;;;;;;;;;;;;6.85;100.00;101299.78;5033286;28;19927;-72
2023/10/23 02:24:36;;;;;;;;;;;;;;;6.79;100.00;101300.09;5036481;28;20007;-72
2023/10/23 02:27:02;;;;;;;;;;;;;;;6.72;100.00;101307.59;5034099;28;19920;-72
2023/10/23 02:29:27;;;;;;;;;;;;;;;6.60;100.00;101314.44;5033464;28;19931;-72
2023/10/23 02:31:52;;;;;;;;;;;;;;;6.62;100.00;101309.06;5034018;28;19920;-72
2023/10/23 02:34:17;;;;;;;;;;;;;;;6.63;100.00;101312.56;5034971;28;19920;-72
2023/10/23 02:36:43;;;;;;;;;;;;;;;6.64;100.00;101311.63;5017896;28;20295;-72
2023/10/23 02:39:09;;;;;;;;;;;;;;;6.66;100.00;101315.06;5023821;28;20382;-72
2023/10/23 02:41:35;;;;;;;;;;;;;;;6.66;100.00;101312.41;5037177;28;20031;-72
2023/10/23 02:44:00;;;;;;;;;;;;;;;6.66;100.00;101328.41;5036807;28;19963;-72
2023/10/23 02:46:25;;;;;;;;;;;;;;;6.70;100.00;101324.63;5020687;28;20694;-72
2023/10/23 02:48:50;;;;;;;;;;;;;;;6.69;100.00;101334.44;5033078;28;20344;-72
2023/10/23 02:51:16;;;;;;;;;;;;;;;6.74;100.00;101329.72;5033861;28;20416;-72
2023/10/23 02:53:41;;;;;;;;;;;;;;;6.85;100.00;101331.81;5036125;28;19924;-72
2023/10/23 02:56:13;;;;;;;;;;;;;;;6.95;100.00;101332.16;5048531;28;19927;-72
2023/10/23 02:58:38;;;;;;;;;;;;;;;7.07;100.00;101335.13;5031685;28;19928;-72
2023/10/23 03:01:13;;;;;;;;;;;;;;;7.14;100.00;101334.69;5017263;28;20488;-72
2023/10/23 03:03:38;;;;;;;;;;;;;;;7.21;100.00;101332.53;5037627;28;19924;-72
2023/10/23 03:06:04;;;;;;;;;;;;;;;7.28;100.00;101335.75;5037201;28;20314;-72
2023/10/23 03:08:29;;;;;;;;;;;;;;;7.30;100.00;101340.03;5024308;28;19916;-72
2023/10/23 03:10:54;;;;;;;;;;;;;;;7.33;100.00;101352.34;5039586;28;20274;-72
2023/10/23 03:13:19;;;;;;;;;;;;;;;7.37;100.00;101345.03;5037641;28;20616;-73
2023/10/23 03:15:44;;;;;;;;;;;;;;;7.45;100.00;101346.31;5038284;28;20454;-73
2023/10/23 03:18:10;;;;;;;;;;;;;;;7.50;100.00;101346.06;5039305;28;19927;-73
2023/10/23 03:20:36;;;;;;;;;;;;;;;7.56;100.00;101347.50;5032832;28;19920;-72
2023/10/23 03:23:01;;;;;;;;;;;;;;;7.58;100.00;101335.81;5032494;28;20028;-72
2023/10/23 03:25:27;;;;;;;;;;;;;;;7.62;100.00;101336.47;5034509;28;20675;-73
2023/10/23 03:27:52;;;;;;;;;;;;;;;7.58;100.00;101338.47;5055658;28;20286;-73
2023/10/23 03:30:17;;;;;;;;;;;;;;;7.50;100.00;101343.38;5043544;28;20211;-73
2023/10/23 03:32:42;;;;;;;;;;;;;;;7.46;100.00;101334.69;5038772;28;20583;-73
2023/10/23 03:35:08;;;;;;;;;;;;;;;7.43;100.00;101326.84;5036172;28;19927;-73
2023/10/23 03:37:33;;;;;;;;;;;;;;;7.44;100.00;101335.72;5038444;28;20019;-73
2023/10/23 03:39:58;;;;;;;;;;;;;;;7.39;100.00;101338.66;5043549;28;19921;-73
2023/10/23 03:42:23;;;;;;;;;;;;;;;7.38;100.00;101339.59;5036827;28;19925;-73
2023/10/23 03:44:49;;;;;;;;;;;;;;;7.33;100.00;101339.00;5041076;28;19940;-73
2023/10/23 03:47:14;;;;;;;;;;;;;;;7.28;100.00;101349.09;5040738;28;19920;-73
2023/10/23 03:49:39;;;;;;;;;;;;;;;7.22;100.00;101346.75;5035474;28;20240;-73
2023/10/23 03:52:04;;;;;;;;;;;;;;;7.22;100.00;101355.63;5030263;28;19932;-73
2023/10/23 03:54:29;;;;;;;;;;;;;;;7.24;100.00;101351.06;5036927;28;19956;-73
2023/10/23 03:56:55;;;;;;;;;;;;;;;7.26;100.00;101346.50;5036381;28;19998;-73
2023/10/23 03:59:20;;;;;;;;;;;;;;;7.25;100.00;101349.25;5037338;28;19928;-73
2023/10/23 04:01:45;;;;;;;;;;;;;;;7.18;100.00;101354.94;5038801;28;19994;-73
2023/10/23 04:04:10;;;;;;;;;;;;;;;7.11;100.00;101352.69;5037054;28;20007;-73
2023/10/23 04:06:38;;;;;;;;;;;;;;;7.04;100.00;101344.13;5039682;28;19921;-73
2023/10/23 04:09:03;;;;;;;;;;;;;;;7.02;100.00;101351.38;5038964;28;19932;-73
2023/10/23 04:11:28;;;;;;;;;;;;;;;7.03;100.00;101356.63;5040428;28;19921;-73
2023/10/23 04:13:53;;;;;;;;;;;;;;;7.01;100.00;101357.69;5037415;28;19956;-73
2023/10/23 04:16:19;;;;;;;;;;;;;;;7.00;100.00;101353.28;5023167;28;20019;-73
2023/10/23 04:18:44;;;;;;;;;;;;;;;6.97;100.00;101351.63;5036414;28;19931;-73
2023/10/23 04:21:11;;;;;;;;;;;;;;;6.94;100.00;101348.28;5034959;28;19968;-73
2023/10/23 04:23:37;;;;;;;;;;;;;;;6.93;100.00;101351.91;5035642;28;19939;-73
2023/10/23 04:26:02;;;;;;;;;;;;;;;6.93;100.00;101349.22;5037798;28;19925;-73
2023/10/23 04:28:27;;;;;;;;;;;;;;;6.94;100.00;101348.28;5036358;28;19959;-73
2023/10/23 04:30:53;;;;;;;;;;;;;;;6.95;100.00;101347.34;5033481;28;19924;-73
2023/10/23 04:33:24;;;;;;;;;;;;;;;6.95;100.00;101352.66;5038579;28;20478;-73
2023/10/23 04:35:53;;;;;;;;;;;;;;;6.95;100.00;101358.00;5045177;28;19921;-72
2023/10/23 04:38:19;;;;;;;;;;;;;;;6.97;100.00;101358.78;5037123;28;19925;-73
2023/10/23 04:40:44;;;;;;;;;;;;;;;6.94;100.00;101375.81;5039034;28;19924;-73
2023/10/23 04:43:10;;;;;;;;;;;;;;;6.90;100.00;101364.47;5033666;28;19968;-73
2023/10/23 04:45:35;;;;;;;;;;;;;;;6.85;100.00;101360.31;5031250;28;19951;-73
2023/10/23 04:48:00;;;;;;;;;;;;;;;6.84;100.00;101372.78;5041614;28;20007;-73
2023/10/23 04:50:26;;;;;;;;;;;;;;;6.86;100.00;101367.38;5036667;28;20144;-73
2023/10/23 04:52:51;;;;;;;;;;;;;;;6.89;100.00;101364.53;5038437;28;19995;-72
2023/10/23 04:55:16;;;;;;;;;;;;;;;6.88;100.00;101349.47;5037862;28;20031;-73
2023/10/23 04:57:41;;;;;;;;;;;;;;;6.90;100.00;101351.09;5039092;28;20290;-73
2023/10/23 05:00:07;;;;;;;;;;;;;;;6.91;100.00;101343.94;5041305;28;20359;-73
2023/10/23 05:02:32;;;;;;;;;;;;;;;6.90;100.00;101348.44;5037659;28;19920;-73
2023/10/23 05:04:57;;;;;;;;;;;;;;;6.92;100.00;101343.00;5044796;28;20430;-73
2023/10/23 05:07:22;;;;;;;;;;;;;;;6.89;100.00;101351.19;5041325;28;19925;-73
2023/10/23 05:09:48;;;;;;;;;;;;;;;6.84;100.00;101355.94;5038367;28;19925;-73
2023/10/23 05:12:13;;;;;;;;;;;;;;;6.83;100.00;101355.03;5042364;28;20544;-73
2023/10/23 05:14:38;;;;;;;;;;;;;;;6.87;100.00;101351.28;5039025;28;20465;-73
2023/10/23 05:17:03;;;;;;;;;;;;;;;6.91;100.00;101349.28;5037570;28;20624;-72
2023/10/23 05:19:29;;;;;;;;;;;;;;;6.94;100.00;101353.63;5039729;28;19927;-73
2023/10/23 05:21:54;;;;;;;;;;;;;;;6.94;100.00;101351.78;5035221;28;20295;-73
2023/10/23 05:24:19;;;;;;;;;;;;;;;6.93;100.00;101352.75;5035402;28;20077;-73
2023/10/23 05:26:44;;;;;;;;;;;;;;;6.92;100.00;101360.84;5036955;28;19982;-73
2023/10/23 05:29:10;;;;;;;;;;;;;;;6.90;100.00;101367.13;5030919;28;19986;-73
2023/10/23 05:31:35;;;;;;;;;;;;;;;6.87;100.00;101361.94;5036652;28;19924;-73
2023/10/23 05:34:00;;;;;;;;;;;;;;;6.87;100.00;101361.09;5036360;28;19927;-72
2023/10/23 05:36:25;;;;;;;;;;;;;;;6.89;100.00;101364.53;5035780;28;19920;-73
2023/10/23 05:38:50;;;;;;;;;;;;;;;6.86;100.00;101368.22;5034917;28;19963;-73
2023/10/23 05:41:16;;;;;;;;;;;;;;;6.87;100.00;101366.44;5034254;28;20023;-73
2023/10/23 05:43:41;;;;;;;;;;;;;;;6.86;100.00;101368.22;5035977;28;20232;-73
2023/10/23 05:46:06;;;;;;;;;;;;;;;6.85;100.00;101369.19;5038087;28;20387;-72
2023/10/23 05:48:31;;;;;;;;;;;;;;;6.86;100.00;101368.22;5030352;28;19917;-73
2023/10/23 05:50:58;;;;;;;;;;;;;;;6.83;100.00;101365.72;5036532;28;19923;-73
2023/10/23 05:53:23;;;;;;;;;;;;;;;6.83;100.00;101370.22;5031059;28;19916;-73
2023/10/23 05:55:48;;;;;;;;;;;;;;;6.84;100.00;101361.25;5035426;28;20318;-73
2023/10/23 05:58:14;;;;;;;;;;;;;;;6.81;100.00;101358.75;5035805;28;20452;-73
2023/10/23 06:00:39;;;;;;;;;;;;;;;6.77;100.00;101360.72;5034261;28;21247;-73
2023/10/23 06:03:04;;;;;;;;;;;;;;;6.74;100.00;101358.22;5034630;28;19920;-72
2023/10/23 06:05:29;;;;;;;;;;;;;;;6.71;100.00;101359.25;5037659;28;19921;-73
2023/10/23 06:07:55;;;;;;;;;;;;;;;6.70;100.00;101359.34;5030352;28;19963;-72
2023/10/23 06:10:20;;;;;;;;;;;;;;;6.63;100.00;101360.59;5038274;28;19935;-73
2023/10/23 06:12:45;;;;;;;;;;;;;;;6.59;100.00;101368.75;5030545;28;19927;-72
2023/10/23 06:15:10;;;;;;;;;;;;;;;6.53;100.00;101365.56;5018992;28;19953;-73
2023/10/23 06:17:36;;;;;;;;;;;;;;;6.48;100.00;101360.47;5033587;28;19928;-73
2023/10/23 06:20:02;;;;;;;;;;;;;;;6.39;100.00;101361.78;5037710;28;19921;-73
2023/10/23 06:22:27;;;;;;;;;;;;;;;6.37;100.00;101366.34;5029367;28;19920;-73
2023/10/23 06:24:52;;;;;;;;;;;;;;;6.34;100.00;101373.66;5030467;28;19921;-73
2023/10/23 06:27:18;;;;;;;;;;;;;;;6.28;100.00;101375.69;5030733;28;19920;-72
2023/10/23 06:29:43;;;;;;;;;;;;;;;6.25;100.00;101372.31;5034373;28;19963;-73
2023/10/23 06:32:11;;;;;;;;;;;;;;;6.18;100.00;101370.91;5034413;28;20012;-73
2023/10/23 06:34:36;;;;;;;;;;;;;;;6.17;100.00;101363.84;5033174;28;21146;-73
2023/10/23 06:37:01;;;;;;;;;;;;;;;6.15;100.00;101367.44;5035476;28;19921;-73
2023/10/23 06:39:26;;;;;;;;;;;;;;;6.15;100.00;101371.94;5034455;28;19920;-72
2023/10/23 06:41:52;;;;;;;;;;;;;;;6.13;100.00;101369.31;5031514;28;19921;-72
2023/10/23 06:44:19;;;;;;;;;;;;;;;6.15;100.00;101371.94;5036154;28;19921;-73
2023/10/23 06:46:44;;;;;;;;;;;;;;;6.14;100.00;101372.88;5030165;28;19943;-73
2023/10/23 06:49:09;;;;;;;;;;;;;;;6.16;100.00;101376.31;5031549;28;20316;-72
2023/10/23 06:51:36;;;;;;;;;;;;;;;6.18;100.00;101371.78;5035831;28;19999;-72
2023/10/23 06:54:03;;;;;;;;;;;;;;;6.21;100.00;101373.41;5039195;28;19960;-72
2023/10/23 06:56:29;;;;;;;;;;;;;;;6.20;100.00;101377.00;5031699;28;20004;-73
2023/10/23 06:58:54;;;;;;;;;;;;;;;6.22;100.00;101378.69;5030852;28;19962;-73
2023/10/23 07:01:19;;;;;;;;;;;;;;;6.24;100.00;101378.59;5030047;28;19924;-73
2023/10/23 07:03:44;;;;;;;;;;;;;;;6.26;100.00;101380.22;5033798;28;19925;-73
2023/10/23 07:06:10;;;;;;;;;;;;;;;6.30;100.00;101378.28;5034148;28;19917;-73
2023/10/23 07:08:37;;;;;;;;;;;;;;;6.32;100.00;101379.06;5034287;28;19920;-73
2023/10/23 07:11:03;;;;;;;;;;;;;;;6.39;100.00;101371.59;5032593;28;19985;-72
2023/10/23 07:13:28;;;;;;;;;;;;;;;6.49;100.00;101370.16;5029828;28;19944;-72
2023/10/23 07:15:53;;;;;;;;;;;;;;;6.48;100.00;101368.47;5033767;28;20466;-73
2023/10/23 07:18:19;;;;;;;;;;;;;;;6.58;100.00;101371.53;5036330;28;19921;-72
2023/10/23 07:20:57;;;;;;;;;;;;;;;6.69;100.00;101376.28;5034438;28;19979;-72
2023/10/23 07:23:22;;;;;;;;;;;;;;;6.69;100.00;101373.63;5030413;28;19920;-73
2023/10/23 07:25:48;;;;;;;;;;;;;;;6.69;100.00;101369.13;5031969;28;19920;-73
2023/10/23 07:28:13;;;;;;;;;;;;;;;6.70;100.00;101370.84;5034374;28;20375;-73
2023/10/23 07:30:40;;;;;;;;;;;;;;;6.75;100.00;101370.63;5029496;28;20137;-73
2023/10/23 07:33:05;;;;;;;;;;;;;;;6.87;100.00;101379.78;5033850;28;19921;-73
2023/10/23 07:35:30;;;;;;;;;;;;;;;6.91;100.00;101381.31;5032612;28;19924;-73
2023/10/23 07:37:56;;;;;;;;;;;;;;;6.98;100.00;101381.88;5029059;28;19967;-72
2023/10/23 07:40:21;;;;;;;;;;;;;;;7.00;100.00;101374.66;5030170;28;19924;-73
2023/10/23 07:42:46;;;;;;;;;;;;;;;7.03;100.00;101369.13;5032103;28;19925;-72
2023/10/23 07:45:12;;;;;;;;;;;;;;;7.08;100.00;101371.56;5016585;28;20295;-72
2023/10/23 07:47:37;;;;;;;;;;;;;;;7.07;100.00;101368.00;5030211;28;20220;-72
2023/10/23 07:50:04;;;;;;;;;;;;;;;7.16;100.00;101363.97;5015479;28;20548;-73
2023/10/23 07:52:29;;;;;;;;;;;;;;;7.27;100.00;101368.75;5030170;28;19982;-72
2023/10/23 07:54:55;;;;;;;;;;;;;;;7.32;100.00;101370.19;5028159;28;20431;-72
2023/10/23 07:57:20;;;;;;;;;;;;;;;7.34;100.00;101376.31;5031845;28;19924;-72
2023/10/23 07:59:45;;;;;;;;;;;;;;;7.48;100.00;101374.66;5030538;28;19920;-72
2023/10/23 08:02:10;;;;;;;;;;;;;;;7.58;100.00;101369.66;5034622;28;19924;-72
2023/10/23 08:04:36;;;;;;;;;;;;;;;7.70;100.00;101371.66;5030686;28;20409;-72
2023/10/23 08:07:01;;;;;;;;;;;;;;;7.76;100.00;101370.44;5031235;28;19952;-72
2023/10/23 08:09:26;;;;;;;;;;;;;;;7.83;100.00;101370.94;5048324;28;19959;-72
2023/10/23 08:11:53;;;;;;;;;;;;;;;7.88;100.00;101367.06;5033179;28;19951;-72
2023/10/23 08:14:18;;;;;;;;;;;;;;;7.83;100.00;101368.25;5027791;28;20353;-72
2023/10/23 08:16:43;;;;;;;;;;;;;;;7.84;100.00;101349.47;5034822;28;20610;-73
2023/10/23 08:19:10;;;;;;;;;;;;;;;8.01;100.00;101369.00;5032592;28;20390;-72
2023/10/23 08:21:36;;;;;;;;;;;;;;;8.06;100.00;101366.94;5033749;28;19920;-73
2023/10/23 08:24:01;;;;;;;;;;;;;;;8.14;100.00;101361.13;5025219;28;20425;-73
2023/10/23 08:26:26;;;;;;;;;;;;;;;8.33;100.00;101358.22;5031439;28;19931;-72
2023/10/23 08:28:51;;;;;;;;;;;;;;;8.34;100.00;101352.75;5031991;28;19931;-72
2023/10/23 08:31:17;;;;;;;;;;;;;;;8.37;100.00;101362.44;5030134;28;19947;-72
2023/10/23 08:33:42;;;;;;;;;;;;;;;8.33;100.00;101361.75;5027935;28;19971;-72
2023/10/23 08:36:08;;;;;;;;;;;;;;;8.44;100.00;101360.25;5032053;28;19960;-72
2023/10/23 08:38:33;;;;;;;;;;;;;;;8.51;100.00;101361.63;5032218;28;19959;-72
2023/10/23 08:41:01;;;;;;;;;;;;;;;8.50;100.00;101365.25;5032000;28;20011;-73
2023/10/23 08:43:26;;;;;;;;;;;;;;;8.49;100.00;101363.53;5029909;28;19923;-73
2023/10/23 08:45:53;;;;;;;;;;;;;;;8.59;100.00;101358.47;5032313;28;19925;-73
2023/10/23 08:48:18;;;;;;;;;;;;;;;8.66;100.00;101367.88;5029966;28;19963;-73
2023/10/23 08:50:43;;;;;;;;;;;;;;;8.73;100.00;101362.97;5032666;28;20019;-72
2023/10/23 08:53:09;;;;;;;;;;;;;;;8.85;100.00;101372.94;5030667;28;20323;-72
2023/10/23 08:55:35;;;;;;;;;;;;;;;8.98;100.00;101378.41;5032392;28;20110;-72
2023/10/23 08:58:00;;;;;;;;;;;;;;;9.03;100.00;101364.72;5014674;28;19921;-72
2023/10/23 09:00:25;;;;;;;;;;;;;;;9.06;100.00;101375.22;5017788;28;19929;-72
2023/10/23 09:02:51;;;;;;;;;;;;;;;9.23;100.00;101375.03;5032190;28;19925;-72
2023/10/23 09:05:16;;;;;;;;;;;;;;;9.23;100.00;101379.53;5029286;28;20354;-72
2023/10/23 09:07:41;;;;;;;;;;;;;;;9.29;100.00;101374.63;5031077;28;19928;-73
2023/10/23 09:10:06;;;;;;;;;;;;;;;9.41;100.00;101370.31;5032422;28;19929;-73
2023/10/23 09:12:32;;;;;;;;;;;;;;;9.58;100.00;101368.34;5033017;28;19916;-73
2023/10/23 09:14:58;;;;;;;;;;;;;;;9.76;100.00;101363.59;5030768;28;19928;-72
2023/10/23 09:17:23;;;;;;;;;;;;;;;9.92;100.00;101363.44;5029225;28;20454;-72
2023/10/23 09:19:49;;;;;;;;;;;;;;;10.08;100.00;101355.22;5030863;28;20361;-72
2023/10/23 09:22:14;;;;;;;;;;;;;;;10.21;100.00;101355.25;5044702;28;19921;-72
2023/10/23 09:24:39;;;;;;;;;;;;;;;10.34;100.00;101345.38;5029091;28;19975;-72
2023/10/23 09:27:04;;;;;;;;;;;;;;;10.43;100.00;101343.06;5033046;28;20016;-73
2023/10/23 09:29:30;;;;;;;;;;;;;;;10.77;100.00;101343.41;5030907;28;19962;-73
2023/10/23 09:31:59;;;;;;;;;;;;;;;11.05;100.00;101339.59;5028768;28;20021;-73
2023/10/23 09:34:24;;;;;;;;;;;;;;;11.19;100.00;101346.66;5034766;28;19923;-72
2023/10/23 09:36:50;;;;;;;;;;;;;;;11.35;100.00;101334.81;5029738;28;19928;-73
2023/10/23 09:39:16;;;;;;;;;;;;;;;11.59;100.00;101344.72;5015143;28;20451;-72
2023/10/23 09:41:41;;;;;;;;;;;;;;;11.69;100.00;101333.16;5014893;28;20052;-72
2023/10/23 09:44:07;;;;;;;;;;;;;;;11.86;100.00;101328.31;5044122;28;19956;-72
2023/10/23 09:46:32;;;;;;;;;;;;;;;11.98;100.00;101326.53;5065755;28;19917;-72
2023/10/23 09:49:03;;;;;;;;;;;;;;;12.12;100.00;101315.63;5032435;28;19925;-72
2023/10/23 09:51:30;;;;;;;;;;;;;;;12.22;100.00;101315.75;5020057;28;20044;-73
2023/10/23 09:53:59;;;;;;;;;;;;;;;12.29;100.00;101317.00;5034875;28;20319;-72
2023/10/23 09:56:24;;;;;;;;;;;;;;;12.41;100.00;101312.50;5035022;28;20316;-72
2023/10/23 09:58:52;;;;;;;;;;;;;;;12.47;100.00;101305.78;5032502;28;19932;-72
2023/10/23 10:01:17;;;;;;;;;;;;;;;12.54;100.00;101301.63;5033054;28;19932;-72
2023/10/23 10:03:42;;;;;;;;;;;;;;;12.65;100.00;101295.38;5034950;28;20132;-73
2023/10/23 10:06:11;;;;;;;;;;;;;;;12.83;100.00;101287.66;5034142;28;19969;-72
2023/10/23 10:08:37;;;;;;;;;;;;;;;12.81;100.00;101291.44;5028534;28;20425;-73
2023/10/23 10:11:02;;;;;;;;;;;;;;;12.79;100.00;101288.03;5035471;28;19967;-72
2023/10/23 10:13:27;;;;;;;;;;;;;;;12.83;100.00;101287.66;5018678;28;20031;-73
2023/10/23 10:15:52;;;;;;;;;;;;;;;13.01;100.00;101285.31;5033408;28;20051;-72
2023/10/23 10:18:18;;;;;;;;;;;;;;;13.11;100.00;101277.31;5029597;28;20002;-72
2023/10/23 10:20:46;;;;;;;;;;;;;;;13.35;100.00;101274.44;5033179;28;20031;-72
2023/10/23 10:23:12;;;;;;;;;;;;;;;13.43;100.00;101268.44;5051060;28;19920;-72
2023/10/23 10:25:38;;;;;;;;;;;;;;;13.72;100.00;101272.41;5069711;28;19921;-72
2023/10/23 10:28:03;;;;;;;;;;;;;;;13.68;100.00;101265.53;5032643;28;19921;-72
2023/10/23 10:30:43;;;;;;;;;;;;;;;13.73;100.00;101258.75;5033275;28;20358;-72
2023/10/23 10:33:29;;;;;;;;;;;;;;;13.43;100.00;101260.34;5033135;28;20335;-72
2023/10/23 10:35:57;;;;;;;;;;;;;;;13.64;100.00;101246.91;5034181;28;19959;-72
2023/10/23 10:38:23;;;;;;;;;;;;;;;13.76;100.00;101250.41;5030994;28;20002;-72
2023/10/23 10:40:58;;;;;;;;;;;;;;;13.65;100.00;101243.22;5031655;28;20007;-72
2023/10/23 10:43:24;;;;;;;;;;;;;;;13.71;100.00;101241.84;5032835;28;19924;-72
2023/10/23 10:45:49;;;;;;;;;;;;;;;13.94;100.00;101239.91;5065774;28;21896;-72
2023/10/23 10:48:15;;;;;;;;;;;;;;;14.12;100.00;101233.03;5068074;28;20357;-72
2023/10/23 10:50:40;;;;;;;;;;;;;;;14.15;100.00;101233.63;5034123;28;20264;-72
2023/10/23 10:53:06;;;;;;;;;;;;;;;14.07;100.00;101228.00;5033259;28;19947;-72
2023/10/23 10:55:32;;;;;;;;;;;;;;;14.05;100.00;101227.28;5015320;28;19920;-72
2023/10/23 10:57:58;;;;;;;;;;;;;;;14.02;100.00;101227.59;5033920;28;19991;-73
2023/10/23 11:00:23;;;;;;;;;;;;;;;14.04;100.00;101225.59;5032383;28;20431;-72
2023/10/23 11:02:49;;;;;;;;;;;;;;;14.20;100.00;101220.56;5031260;28;19917;-72
2023/10/23 11:05:14;;;;;;;;;;;;;;;14.25;100.00;101201.25;5031427;28;19937;-72
2023/10/23 11:07:39;;;;;;;;;;;;;;;14.15;100.00;101205.78;5018248;28;19924;-72
2023/10/23 11:10:05;;;;;;;;;;;;;;;14.33;100.00;101197.88;5019652;28;19929;-72
2023/10/23 11:12:30;;;;;;;;;;;;;;;14.51;100.00;101196.28;5034706;28;19924;-72
2023/10/23 11:14:55;;;;;;;;;;;;;;;14.55;100.00;101191.44;5036353;28;20341;-72
2023/10/23 11:17:20;;;;;;;;;;;;;;;14.55;100.00;101184.19;5031410;28;20386;-73
2023/10/23 11:19:46;;;;;;;;;;;;;;;14.39;100.00;101181.13;5034871;28;20381;-73
2023/10/23 11:22:12;;;;;;;;;;;;;;;14.15;100.00;101141.81;5020708;28;20252;-72
2023/10/23 11:24:37;;;;;;;;;;;;;;;14.34;100.00;101175.28;5018484;28;19923;-72
2023/10/23 11:27:04;;;;;;;;;;;;;;;14.34;100.00;101177.97;5022400;28;19920;-73
2023/10/23 11:29:36;;;;;;;;;;;;;;;14.28;100.00;101171.28;5031916;28;19921;-72
2023/10/23 11:32:01;;;;;;;;;;;;;;;14.34;100.00;101165.34;5032781;28;19917;-73
2023/10/23 11:34:26;;;;;;;;;;;;;;;14.55;100.00;101164.41;5037952;28;19957;-73
2023/10/23 11:36:51;;;;;;;;;;;;;;;14.31;100.00;101159.34;5033892;28;19974;-72
2023/10/23 11:39:20;;;;;;;;;;;;;;;14.45;100.00;101158.13;5034695;28;19921;-72
2023/10/23 11:41:58;;;;;;;;;;;;;;;14.50;100.00;101159.44;5033145;28;19920;-73
2023/10/23 11:44:24;;;;;;;;;;;;;;;14.83;100.00;101148.44;5034955;28;20300;-72
2023/10/23 11:46:50;;;;;;;;;;;;;;;14.83;100.00;101146.56;5035982;28;20019;-72
2023/10/23 11:49:19;;;;;;;;;;;;;;;14.69;100.00;101137.06;5031638;28;19929;-75
2023/10/23 11:51:44;;;;;;;;;;;;;;;14.79;100.00;101133.50;5028209;28;20175;-73
2023/10/23 11:54:10;;;;;;;;;;;;;;;14.83;100.00;101132.22;5014615;28;19927;-76
2023/10/23 11:56:36;;;;;;;;;;;;;;;14.98;100.00;101130.78;5029074;28;20034;-73
2023/10/23 11:59:02;;;;;;;;;;;;;;;15.04;100.00;101113.19;5017740;28;19931;-72
2023/10/23 12:01:27;;;;;;;;;;;;;;;15.04;100.00;101117.72;5032236;28;19925;-75
2023/10/23 12:03:52;;;;;;;;;;;;;;;14.83;100.00;101108.72;5035185;28;20382;-73
2023/10/23 12:06:18;;;;;;;;;;;;;;;14.82;100.00;101112.47;5031871;28;20581;-73
2023/10/23 12:08:43;;;;;;;;;;;;;;;14.70;100.00;101103.59;5029926;28;20442;-72
2023/10/23 12:11:08;;;;;;;;;;;;;;;14.81;100.00;101108.03;5032571;28;19927;-75
2023/10/23 12:13:33;;;;;;;;;;;;;;;14.76;100.00;101106.75;5033550;28;20285;-72
2023/10/23 12:15:59;;;;;;;;;;;;;;;14.99;100.00;101094.66;5032736;28;20011;-72
2023/10/23 12:18:26;;;;;;;;;;;;;;;15.03;100.00;101097.94;5033144;28;19924;-72
2023/10/23 12:20:51;;;;;;;;;;;;;;;15.19;100.00;101093.81;5031087;28;19928;-72
2023/10/23 12:23:16;;;;;;;;;;;;;;;15.23;100.00;101092.53;5015994;28;19928;-72
2023/10/23 12:25:41;;;;;;;;;;;;;;;15.18;100.00;101086.69;5019787;28;20433;-72